sensor_id;sensor_type;location;lat;lon;timestamp;P1;durP1;ratioP1;P2;durP2;ratioP2
22754;SDS011;11544;42.020;23.094;2022-12-17T00:01:08;8.77;;;4.38;;
22754;SDS011;11544;42.020;23.094;2022-12-17T00:04:30;7.20;;;3.90;;
22754;SDS011;11544;42.020;23.094;2022-12-17T00:10:24;6.55;;;4.45;;
22754;SDS011;11544;42.020;23.094;2022-12-17T00:16:28;10.73;;;4.85;;
22754;SDS011;11544;42.020;23.094;2022-12-17T00:19:13;8.02;;;4.80;;
22754;SDS011;11544;42.020;23.094;2022-12-17T00:21:59;8.13;;;5.13;;
22754;SDS011;11544;42.020;23.094;2022-12-17T00:41:47;10.43;;;5.68;;
22754;SDS011;11544;42.020;23.094;2022-12-17T00:44:48;8.32;;;4.90;;
22754;SDS011;11544;42.020;23.094;2022-12-17T00:47:35;8.40;;;4.57;;
22754;SDS011;11544;42.020;23.094;2022-12-17T00:50:28;12.68;;;5.35;;
22754;SDS011;11544;42.020;23.094;2022-12-17T00:53:14;9.55;;;5.25;;
22754;SDS011;11544;42.020;23.094;2022-12-17T00:56:18;10.80;;;5.03;;
22754;SDS011;11544;42.020;23.094;2022-12-17T01:10:32;11.98;;;5.00;;
22754;SDS011;11544;42.020;23.094;2022-12-17T01:13:21;12.93;;;6.28;;
22754;SDS011;11544;42.020;23.094;2022-12-17T01:16:14;12.40;;;5.57;;
22754;SDS011;11544;42.020;23.094;2022-12-17T01:19:19;10.63;;;5.55;;
22754;SDS011;11544;42.020;23.094;2022-12-17T01:22:28;11.75;;;5.68;;
22754;SDS011;11544;42.020;23.094;2022-12-17T01:25:21;12.10;;;6.88;;
22754;SDS011;11544;42.020;23.094;2022-12-17T01:28:30;14.82;;;7.03;;
22754;SDS011;11544;42.020;23.094;2022-12-17T01:31:17;12.15;;;6.40;;
22754;SDS011;11544;42.020;23.094;2022-12-17T01:34:22;13.15;;;7.05;;
22754;SDS011;11544;42.020;23.094;2022-12-17T01:37:14;14.38;;;7.18;;
22754;SDS011;11544;42.020;23.094;2022-12-17T01:40:34;12.80;;;7.35;;
22754;SDS011;11544;42.020;23.094;2022-12-17T01:43:32;14.43;;;7.43;;
22754;SDS011;11544;42.020;23.094;2022-12-17T01:46:32;11.23;;;6.95;;
22754;SDS011;11544;42.020;23.094;2022-12-17T01:49:43;13.82;;;6.50;;
22754;SDS011;11544;42.020;23.094;2022-12-17T01:52:44;15.10;;;7.25;;
22754;SDS011;11544;42.020;23.094;2022-12-17T01:59:02;14.73;;;7.35;;
22754;SDS011;11544;42.020;23.094;2022-12-17T02:02:15;13.60;;;6.88;;
22754;SDS011;11544;42.020;23.094;2022-12-17T02:05:42;14.77;;;6.75;;
22754;SDS011;11544;42.020;23.094;2022-12-17T02:12:55;18.48;;;7.43;;
22754;SDS011;11544;42.020;23.094;2022-12-17T02:16:32;15.65;;;6.75;;
22754;SDS011;11544;42.020;23.094;2022-12-17T02:23:40;15.85;;;7.18;;
22754;SDS011;11544;42.020;23.094;2022-12-17T02:26:48;15.77;;;6.78;;
22754;SDS011;11544;42.020;23.094;2022-12-17T02:29:42;14.25;;;5.88;;
22754;SDS011;11544;42.020;23.094;2022-12-17T02:32:33;12.18;;;6.90;;
22754;SDS011;11544;42.020;23.094;2022-12-17T02:35:24;13.68;;;6.60;;
22754;SDS011;11544;42.020;23.094;2022-12-17T02:38:16;13.43;;;6.95;;
22754;SDS011;11544;42.020;23.094;2022-12-17T02:41:07;12.70;;;6.47;;
22754;SDS011;11544;42.020;23.094;2022-12-17T02:44:04;14.90;;;6.53;;
22754;SDS011;11544;42.020;23.094;2022-12-17T02:46:52;13.60;;;6.50;;
22754;SDS011;11544;42.020;23.094;2022-12-17T02:49:58;12.77;;;5.70;;
22754;SDS011;11544;42.020;23.094;2022-12-17T02:53:18;11.65;;;6.20;;
22754;SDS011;11544;42.020;23.094;2022-12-17T02:56:20;16.20;;;6.97;;
22754;SDS011;11544;42.020;23.094;2022-12-17T02:59:23;13.35;;;6.10;;
22754;SDS011;11544;42.020;23.094;2022-12-17T03:02:09;12.23;;;6.07;;
22754;SDS011;11544;42.020;23.094;2022-12-17T03:04:55;15.82;;;6.40;;
22754;SDS011;11544;42.020;23.094;2022-12-17T03:08:01;12.55;;;5.45;;
22754;SDS011;11544;42.020;23.094;2022-12-17T03:10:47;15.60;;;6.78;;
22754;SDS011;11544;42.020;23.094;2022-12-17T03:13:34;14.05;;;6.80;;
22754;SDS011;11544;42.020;23.094;2022-12-17T03:16:51;12.93;;;5.72;;
22754;SDS011;11544;42.020;23.094;2022-12-17T03:19:51;11.27;;;5.30;;
22754;SDS011;11544;42.020;23.094;2022-12-17T03:22:37;12.70;;;6.18;;
22754;SDS011;11544;42.020;23.094;2022-12-17T03:25:22;16.45;;;6.55;;
22754;SDS011;11544;42.020;23.094;2022-12-17T03:28:09;13.98;;;6.68;;
22754;SDS011;11544;42.020;23.094;2022-12-17T03:30:58;15.07;;;6.53;;
22754;SDS011;11544;42.020;23.094;2022-12-17T03:33:44;12.02;;;5.65;;
22754;SDS011;11544;42.020;23.094;2022-12-17T03:36:30;12.77;;;6.53;;
22754;SDS011;11544;42.020;23.094;2022-12-17T03:39:16;13.35;;;6.47;;
22754;SDS011;11544;42.020;23.094;2022-12-17T03:42:01;12.77;;;7.05;;
22754;SDS011;11544;42.020;23.094;2022-12-17T03:44:52;10.60;;;6.15;;
22754;SDS011;11544;42.020;23.094;2022-12-17T03:47:37;14.13;;;7.22;;
22754;SDS011;11544;42.020;23.094;2022-12-17T03:50:24;15.55;;;7.95;;
22754;SDS011;11544;42.020;23.094;2022-12-17T03:53:11;18.02;;;7.30;;
22754;SDS011;11544;42.020;23.094;2022-12-17T03:55:57;16.10;;;7.43;;
22754;SDS011;11544;42.020;23.094;2022-12-17T03:58:43;13.77;;;6.65;;
22754;SDS011;11544;42.020;23.094;2022-12-17T04:01:32;15.48;;;7.22;;
22754;SDS011;11544;42.020;23.094;2022-12-17T04:04:51;13.02;;;6.57;;
22754;SDS011;11544;42.020;23.094;2022-12-17T04:08:00;14.05;;;7.28;;
22754;SDS011;11544;42.020;23.094;2022-12-17T04:10:58;13.23;;;7.47;;
22754;SDS011;11544;42.020;23.094;2022-12-17T04:13:44;15.50;;;6.40;;
22754;SDS011;11544;42.020;23.094;2022-12-17T04:16:47;12.05;;;6.15;;
22754;SDS011;11544;42.020;23.094;2022-12-17T04:19:54;15.60;;;6.85;;
22754;SDS011;11544;42.020;23.094;2022-12-17T04:23:18;14.73;;;6.57;;
22754;SDS011;11544;42.020;23.094;2022-12-17T04:40:34;12.55;;;7.07;;
22754;SDS011;11544;42.020;23.094;2022-12-17T04:43:36;15.23;;;8.10;;
22754;SDS011;11544;42.020;23.094;2022-12-17T04:46:35;15.25;;;6.93;;
22754;SDS011;11544;42.020;23.094;2022-12-17T04:50:00;11.73;;;6.40;;
22754;SDS011;11544;42.020;23.094;2022-12-17T04:53:02;17.75;;;7.32;;
22754;SDS011;11544;42.020;23.094;2022-12-17T04:55:52;16.35;;;6.65;;
22754;SDS011;11544;42.020;23.094;2022-12-17T04:58:38;14.88;;;7.18;;
22754;SDS011;11544;42.020;23.094;2022-12-17T05:01:25;14.63;;;6.55;;
22754;SDS011;11544;42.020;23.094;2022-12-17T05:04:25;13.95;;;7.15;;
22754;SDS011;11544;42.020;23.094;2022-12-17T05:07:42;12.57;;;6.68;;
22754;SDS011;11544;42.020;23.094;2022-12-17T05:11:03;17.15;;;7.07;;
22754;SDS011;11544;42.020;23.094;2022-12-17T05:14:12;12.90;;;6.80;;
22754;SDS011;11544;42.020;23.094;2022-12-17T05:20:30;17.33;;;7.43;;
22754;SDS011;11544;42.020;23.094;2022-12-17T05:27:15;18.42;;;8.60;;
22754;SDS011;11544;42.020;23.094;2022-12-17T05:30:17;18.17;;;8.23;;
22754;SDS011;11544;42.020;23.094;2022-12-17T05:33:16;14.68;;;8.18;;
22754;SDS011;11544;42.020;23.094;2022-12-17T05:40:09;20.98;;;8.48;;
22754;SDS011;11544;42.020;23.094;2022-12-17T05:49:38;14.77;;;8.25;;
22754;SDS011;11544;42.020;23.094;2022-12-17T05:52:33;15.98;;;7.60;;
22754;SDS011;11544;42.020;23.094;2022-12-17T05:55:22;14.77;;;7.55;;
22754;SDS011;11544;42.020;23.094;2022-12-17T05:58:24;17.70;;;8.05;;
22754;SDS011;11544;42.020;23.094;2022-12-17T06:01:21;17.15;;;7.97;;
22754;SDS011;11544;42.020;23.094;2022-12-17T06:04:15;15.98;;;8.75;;
22754;SDS011;11544;42.020;23.094;2022-12-17T06:07:00;16.05;;;7.40;;
22754;SDS011;11544;42.020;23.094;2022-12-17T06:09:46;15.80;;;7.63;;
22754;SDS011;11544;42.020;23.094;2022-12-17T06:12:38;21.13;;;8.20;;
22754;SDS011;11544;42.020;23.094;2022-12-17T06:15:26;15.75;;;8.57;;
22754;SDS011;11544;42.020;23.094;2022-12-17T06:18:12;17.50;;;8.82;;
22754;SDS011;11544;42.020;23.094;2022-12-17T06:21:08;12.48;;;7.28;;
22754;SDS011;11544;42.020;23.094;2022-12-17T06:23:54;16.85;;;8.48;;
22754;SDS011;11544;42.020;23.094;2022-12-17T06:26:40;16.60;;;8.55;;
22754;SDS011;11544;42.020;23.094;2022-12-17T06:33:06;15.02;;;7.93;;
22754;SDS011;11544;42.020;23.094;2022-12-17T06:48:31;14.45;;;7.97;;
22754;SDS011;11544;42.020;23.094;2022-12-17T06:51:41;17.88;;;8.43;;
22754;SDS011;11544;42.020;23.094;2022-12-17T06:54:27;18.65;;;7.82;;
22754;SDS011;11544;42.020;23.094;2022-12-17T06:57:15;12.32;;;7.03;;
22754;SDS011;11544;42.020;23.094;2022-12-17T07:00:09;11.98;;;7.18;;
22754;SDS011;11544;42.020;23.094;2022-12-17T07:02:59;12.35;;;7.07;;
22754;SDS011;11544;42.020;23.094;2022-12-17T07:05:44;15.48;;;7.75;;
22754;SDS011;11544;42.020;23.094;2022-12-17T07:08:32;16.30;;;8.40;;
22754;SDS011;11544;42.020;23.094;2022-12-17T07:11:22;15.63;;;7.15;;
22754;SDS011;11544;42.020;23.094;2022-12-17T07:14:14;14.02;;;7.25;;
22754;SDS011;11544;42.020;23.094;2022-12-17T07:17:04;12.52;;;6.63;;
22754;SDS011;11544;42.020;23.094;2022-12-17T07:19:50;11.23;;;6.80;;
22754;SDS011;11544;42.020;23.094;2022-12-17T07:22:52;12.30;;;6.82;;
22754;SDS011;11544;42.020;23.094;2022-12-17T07:29:20;45.15;;;17.50;;
22754;SDS011;11544;42.020;23.094;2022-12-17T07:32:06;11.90;;;7.82;;
22754;SDS011;11544;42.020;23.094;2022-12-17T07:34:54;13.50;;;7.43;;
22754;SDS011;11544;42.020;23.094;2022-12-17T07:37:40;11.52;;;6.88;;
22754;SDS011;11544;42.020;23.094;2022-12-17T08:57:37;15.15;;;6.13;;
22754;SDS011;11544;42.020;23.094;2022-12-17T09:23:39;10.27;;;5.40;;
22754;SDS011;11544;42.020;23.094;2022-12-17T15:28:36;60.97;;;34.42;;
22754;SDS011;11544;42.020;23.094;2022-12-17T15:31:04;32.53;;;18.52;;
22754;SDS011;11544;42.020;23.094;2022-12-17T15:33:31;29.10;;;19.42;;
22754;SDS011;11544;42.020;23.094;2022-12-17T15:36:08;41.28;;;24.17;;
22754;SDS011;11544;42.020;23.094;2022-12-17T15:38:37;23.23;;;14.32;;
22754;SDS011;11544;42.020;23.094;2022-12-17T15:41:09;20.80;;;12.15;;
22754;SDS011;11544;42.020;23.094;2022-12-17T15:43:55;33.05;;;15.93;;
22754;SDS011;11544;42.020;23.094;2022-12-17T15:46:22;23.45;;;14.55;;
22754;SDS011;11544;42.020;23.094;2022-12-17T15:48:49;16.00;;;10.32;;
22754;SDS011;11544;42.020;23.094;2022-12-17T15:51:18;14.13;;;9.23;;
22754;SDS011;11544;42.020;23.094;2022-12-17T15:57:19;11.45;;;6.35;;
22754;SDS011;11544;42.020;23.094;2022-12-17T15:59:47;14.73;;;8.25;;
22754;SDS011;11544;42.020;23.094;2022-12-17T16:02:19;13.40;;;7.65;;
22754;SDS011;11544;42.020;23.094;2022-12-17T16:04:46;17.35;;;8.70;;
22754;SDS011;11544;42.020;23.094;2022-12-17T16:07:16;11.70;;;6.60;;
22754;SDS011;11544;42.020;23.094;2022-12-17T16:09:46;19.02;;;9.80;;
22754;SDS011;11544;42.020;23.094;2022-12-17T16:12:16;13.82;;;7.82;;
22754;SDS011;11544;42.020;23.094;2022-12-17T16:14:48;15.48;;;8.82;;
22754;SDS011;11544;42.020;23.094;2022-12-17T16:17:19;13.13;;;8.77;;
22754;SDS011;11544;42.020;23.094;2022-12-17T16:19:46;15.35;;;9.60;;
22754;SDS011;11544;42.020;23.094;2022-12-17T16:22:13;18.80;;;11.82;;
22754;SDS011;11544;42.020;23.094;2022-12-17T16:24:48;19.70;;;13.07;;
22754;SDS011;11544;42.020;23.094;2022-12-17T16:27:21;21.73;;;13.70;;
22754;SDS011;11544;42.020;23.094;2022-12-17T16:29:54;21.20;;;12.93;;
22754;SDS011;11544;42.020;23.094;2022-12-17T16:32:21;22.58;;;11.82;;
22754;SDS011;11544;42.020;23.094;2022-12-17T16:34:48;21.23;;;12.60;;
22754;SDS011;11544;42.020;23.094;2022-12-17T16:37:18;15.50;;;9.43;;
22754;SDS011;11544;42.020;23.094;2022-12-17T16:39:47;19.60;;;9.45;;
22754;SDS011;11544;42.020;23.094;2022-12-17T16:42:27;16.58;;;10.02;;
22754;SDS011;11544;42.020;23.094;2022-12-17T16:44:59;13.93;;;9.65;;
22754;SDS011;11544;42.020;23.094;2022-12-17T16:47:28;15.55;;;9.60;;
22754;SDS011;11544;42.020;23.094;2022-12-17T16:49:58;18.05;;;10.77;;
22754;SDS011;11544;42.020;23.094;2022-12-17T16:52:28;14.05;;;8.80;;
22754;SDS011;11544;42.020;23.094;2022-12-17T16:54:59;14.23;;;8.43;;
22754;SDS011;11544;42.020;23.094;2022-12-17T16:57:32;17.67;;;11.00;;
22754;SDS011;11544;42.020;23.094;2022-12-17T16:59:59;19.20;;;11.20;;
22754;SDS011;11544;42.020;23.094;2022-12-17T17:02:26;16.50;;;10.60;;
22754;SDS011;11544;42.020;23.094;2022-12-17T17:04:54;23.20;;;12.68;;
22754;SDS011;11544;42.020;23.094;2022-12-17T17:07:21;32.60;;;16.42;;
22754;SDS011;11544;42.020;23.094;2022-12-17T17:10:10;18.73;;;10.85;;
22754;SDS011;11544;42.020;23.094;2022-12-17T17:12:43;19.15;;;8.70;;
22754;SDS011;11544;42.020;23.094;2022-12-17T17:15:19;21.33;;;9.82;;
22754;SDS011;11544;42.020;23.094;2022-12-17T17:17:50;15.27;;;9.32;;
22754;SDS011;11544;42.020;23.094;2022-12-17T17:23:13;34.83;;;17.75;;
22754;SDS011;11544;42.020;23.094;2022-12-17T17:25:46;27.70;;;15.75;;
22754;SDS011;11544;42.020;23.094;2022-12-17T17:28:34;40.42;;;24.88;;
22754;SDS011;11544;42.020;23.094;2022-12-17T17:31:01;24.35;;;12.35;;
22754;SDS011;11544;42.020;23.094;2022-12-17T17:33:45;14.75;;;8.98;;
22754;SDS011;11544;42.020;23.094;2022-12-17T17:36:15;10.93;;;6.82;;
22754;SDS011;11544;42.020;23.094;2022-12-17T17:38:46;12.25;;;7.28;;
22754;SDS011;11544;42.020;23.094;2022-12-17T17:41:18;9.63;;;5.50;;
22754;SDS011;11544;42.020;23.094;2022-12-17T17:46:51;12.23;;;7.80;;
22754;SDS011;11544;42.020;23.094;2022-12-17T17:49:18;19.40;;;11.32;;
22754;SDS011;11544;42.020;23.094;2022-12-17T17:51:45;21.25;;;13.95;;
22754;SDS011;11544;42.020;23.094;2022-12-17T17:54:32;35.70;;;19.92;;
22754;SDS011;11544;42.020;23.094;2022-12-17T17:57:00;35.17;;;20.08;;
22754;SDS011;11544;42.020;23.094;2022-12-17T17:59:34;32.33;;;18.58;;
22754;SDS011;11544;42.020;23.094;2022-12-17T18:02:04;22.77;;;12.65;;
22754;SDS011;11544;42.020;23.094;2022-12-17T18:04:32;16.83;;;10.07;;
22754;SDS011;11544;42.020;23.094;2022-12-17T18:07:00;18.73;;;10.10;;
22754;SDS011;11544;42.020;23.094;2022-12-17T18:09:47;24.75;;;11.57;;
22754;SDS011;11544;42.020;23.094;2022-12-17T18:12:22;18.33;;;11.60;;
22754;SDS011;11544;42.020;23.094;2022-12-17T18:15:21;12.95;;;8.43;;
22754;SDS011;11544;42.020;23.094;2022-12-17T18:17:49;13.85;;;8.50;;
22754;SDS011;11544;42.020;23.094;2022-12-17T18:20:34;12.60;;;7.95;;
22754;SDS011;11544;42.020;23.094;2022-12-17T18:23:17;18.52;;;10.95;;
22754;SDS011;11544;42.020;23.094;2022-12-17T18:25:47;16.38;;;9.68;;
22754;SDS011;11544;42.020;23.094;2022-12-17T18:28:14;25.95;;;13.82;;
22754;SDS011;11544;42.020;23.094;2022-12-17T18:30:44;21.35;;;12.10;;
22754;SDS011;11544;42.020;23.094;2022-12-17T18:33:17;17.08;;;11.30;;
22754;SDS011;11544;42.020;23.094;2022-12-17T18:35:46;17.73;;;12.25;;
22754;SDS011;11544;42.020;23.094;2022-12-17T18:38:13;21.05;;;13.43;;
22754;SDS011;11544;42.020;23.094;2022-12-17T18:40:46;25.80;;;15.13;;
22754;SDS011;11544;42.020;23.094;2022-12-17T18:43:18;23.75;;;15.93;;
22754;SDS011;11544;42.020;23.094;2022-12-17T18:45:51;22.15;;;12.20;;
22754;SDS011;11544;42.020;23.094;2022-12-17T18:48:19;17.65;;;10.77;;
22754;SDS011;11544;42.020;23.094;2022-12-17T18:50:50;17.42;;;10.15;;
22754;SDS011;11544;42.020;23.094;2022-12-17T18:56:35;18.33;;;10.32;;
22754;SDS011;11544;42.020;23.094;2022-12-17T19:03:05;14.50;;;8.88;;
22754;SDS011;11544;42.020;23.094;2022-12-17T19:05:56;16.60;;;9.43;;
22754;SDS011;11544;42.020;23.094;2022-12-17T19:08:50;15.75;;;9.30;;
22754;SDS011;11544;42.020;23.094;2022-12-17T19:11:19;11.98;;;7.68;;
22754;SDS011;11544;42.020;23.094;2022-12-17T19:13:48;19.80;;;11.73;;
22754;SDS011;11544;42.020;23.094;2022-12-17T19:16:17;26.38;;;16.42;;
22754;SDS011;11544;42.020;23.094;2022-12-17T19:19:01;45.60;;;24.77;;
22754;SDS011;11544;42.020;23.094;2022-12-17T19:21:30;53.25;;;30.13;;
22754;SDS011;11544;42.020;23.094;2022-12-17T19:24:03;58.47;;;32.25;;
22754;SDS011;11544;42.020;23.094;2022-12-17T19:27:01;69.20;;;35.83;;
22754;SDS011;11544;42.020;23.094;2022-12-17T19:29:37;49.10;;;27.58;;
22754;SDS011;11544;42.020;23.094;2022-12-17T19:32:14;31.08;;;17.27;;
22754;SDS011;11544;42.020;23.094;2022-12-17T19:34:44;25.40;;;16.65;;
22754;SDS011;11544;42.020;23.094;2022-12-17T19:37:13;27.13;;;15.55;;
22754;SDS011;11544;42.020;23.094;2022-12-17T19:42:48;17.88;;;10.98;;
22754;SDS011;11544;42.020;23.094;2022-12-17T19:45:19;22.38;;;13.45;;
22754;SDS011;11544;42.020;23.094;2022-12-17T19:47:51;33.53;;;17.40;;
22754;SDS011;11544;42.020;23.094;2022-12-17T19:50:22;37.55;;;19.38;;
22754;SDS011;11544;42.020;23.094;2022-12-17T19:53:26;32.80;;;19.15;;
22754;SDS011;11544;42.020;23.094;2022-12-17T19:55:56;34.78;;;19.60;;
22754;SDS011;11544;42.020;23.094;2022-12-17T19:58:34;35.97;;;19.75;;
22754;SDS011;11544;42.020;23.094;2022-12-17T20:01:06;30.23;;;16.33;;
22754;SDS011;11544;42.020;23.094;2022-12-17T20:03:35;24.95;;;14.85;;
22754;SDS011;11544;42.020;23.094;2022-12-17T20:06:49;31.15;;;16.48;;
22754;SDS011;11544;42.020;23.094;2022-12-17T20:09:16;21.00;;;12.45;;
22754;SDS011;11544;42.020;23.094;2022-12-17T20:11:46;23.00;;;12.60;;
22754;SDS011;11544;42.020;23.094;2022-12-17T20:14:21;32.33;;;17.45;;
22754;SDS011;11544;42.020;23.094;2022-12-17T20:16:58;34.53;;;20.00;;
22754;SDS011;11544;42.020;23.094;2022-12-17T20:22:50;29.92;;;17.52;;
22754;SDS011;11544;42.020;23.094;2022-12-17T20:25:19;27.42;;;14.93;;
22754;SDS011;11544;42.020;23.094;2022-12-17T20:28:08;26.58;;;15.15;;
22754;SDS011;11544;42.020;23.094;2022-12-17T20:30:56;26.73;;;16.17;;
22754;SDS011;11544;42.020;23.094;2022-12-17T20:33:31;21.52;;;12.55;;
22754;SDS011;11544;42.020;23.094;2022-12-17T20:36:09;23.10;;;13.23;;
22754;SDS011;11544;42.020;23.094;2022-12-17T20:38:43;30.15;;;18.23;;
22754;SDS011;11544;42.020;23.094;2022-12-17T20:41:14;28.48;;;17.63;;
22754;SDS011;11544;42.020;23.094;2022-12-17T20:43:51;30.90;;;17.45;;
22754;SDS011;11544;42.020;23.094;2022-12-17T20:46:19;28.65;;;16.77;;
22754;SDS011;11544;42.020;23.094;2022-12-17T20:48:57;28.13;;;17.17;;
22754;SDS011;11544;42.020;23.094;2022-12-17T20:51:33;29.88;;;18.90;;
22754;SDS011;11544;42.020;23.094;2022-12-17T20:54:00;32.55;;;17.73;;
22754;SDS011;11544;42.020;23.094;2022-12-17T20:56:32;28.67;;;17.80;;
22754;SDS011;11544;42.020;23.094;2022-12-17T20:59:12;24.92;;;15.38;;
22754;SDS011;11544;42.020;23.094;2022-12-17T21:02:02;22.45;;;13.07;;
22754;SDS011;11544;42.020;23.094;2022-12-17T21:04:46;23.85;;;15.10;;
22754;SDS011;11544;42.020;23.094;2022-12-17T21:07:13;28.65;;;14.35;;
22754;SDS011;11544;42.020;23.094;2022-12-17T21:10:04;22.75;;;16.00;;
22754;SDS011;11544;42.020;23.094;2022-12-17T21:12:28;27.70;;;16.45;;
22754;SDS011;11544;42.020;23.094;2022-12-17T21:15:17;30.23;;;17.60;;
22754;SDS011;11544;42.020;23.094;2022-12-17T21:17:47;28.92;;;16.70;;
22754;SDS011;11544;42.020;23.094;2022-12-17T21:20:14;26.80;;;15.85;;
22754;SDS011;11544;42.020;23.094;2022-12-17T21:22:41;26.73;;;15.35;;
22754;SDS011;11544;42.020;23.094;2022-12-17T21:25:08;28.30;;;17.63;;
22754;SDS011;11544;42.020;23.094;2022-12-17T21:27:35;29.25;;;17.65;;
22754;SDS011;11544;42.020;23.094;2022-12-17T21:30:04;28.90;;;17.65;;
22754;SDS011;11544;42.020;23.094;2022-12-17T21:32:38;33.05;;;17.98;;
22754;SDS011;11544;42.020;23.094;2022-12-17T21:35:05;29.17;;;17.42;;
22754;SDS011;11544;42.020;23.094;2022-12-17T21:37:33;38.60;;;18.58;;
22754;SDS011;11544;42.020;23.094;2022-12-17T21:40:00;33.90;;;19.05;;
22754;SDS011;11544;42.020;23.094;2022-12-17T21:42:27;32.28;;;17.95;;
22754;SDS011;11544;42.020;23.094;2022-12-17T21:45:13;28.75;;;17.98;;
22754;SDS011;11544;42.020;23.094;2022-12-17T21:47:40;30.85;;;18.65;;
22754;SDS011;11544;42.020;23.094;2022-12-17T21:50:07;32.90;;;18.02;;
22754;SDS011;11544;42.020;23.094;2022-12-17T21:52:35;31.02;;;18.38;;
22754;SDS011;11544;42.020;23.094;2022-12-17T21:55:02;35.42;;;18.02;;
22754;SDS011;11544;42.020;23.094;2022-12-17T21:57:29;33.67;;;19.50;;
22754;SDS011;11544;42.020;23.094;2022-12-17T21:59:56;37.33;;;20.58;;
22754;SDS011;11544;42.020;23.094;2022-12-17T22:02:25;27.45;;;18.40;;
22754;SDS011;11544;42.020;23.094;2022-12-17T22:04:52;31.08;;;17.48;;
22754;SDS011;11544;42.020;23.094;2022-12-17T22:07:19;38.97;;;22.13;;
22754;SDS011;11544;42.020;23.094;2022-12-17T22:09:48;40.65;;;21.98;;
22754;SDS011;11544;42.020;23.094;2022-12-17T22:12:36;32.70;;;19.05;;
22754;SDS011;11544;42.020;23.094;2022-12-17T22:15:22;26.73;;;17.13;;
22754;SDS011;11544;42.020;23.094;2022-12-17T22:17:53;24.92;;;15.35;;
22754;SDS011;11544;42.020;23.094;2022-12-17T22:20:24;25.35;;;15.20;;
22754;SDS011;11544;42.020;23.094;2022-12-17T22:22:51;24.40;;;15.43;;
22754;SDS011;11544;42.020;23.094;2022-12-17T22:25:18;24.73;;;14.00;;
22754;SDS011;11544;42.020;23.094;2022-12-17T22:27:45;24.13;;;12.50;;
22754;SDS011;11544;42.020;23.094;2022-12-17T22:30:14;20.67;;;12.05;;
22754;SDS011;11544;42.020;23.094;2022-12-17T22:33:04;18.90;;;11.98;;
22754;SDS011;11544;42.020;23.094;2022-12-17T22:35:52;20.23;;;10.90;;
22754;SDS011;11544;42.020;23.094;2022-12-17T22:38:39;12.75;;;7.63;;
22754;SDS011;11544;42.020;23.094;2022-12-17T22:41:26;12.18;;;6.43;;
22754;SDS011;11544;42.020;23.094;2022-12-17T22:44:33;12.48;;;7.30;;
22754;SDS011;11544;42.020;23.094;2022-12-17T22:47:18;12.52;;;7.32;;
22754;SDS011;11544;42.020;23.094;2022-12-17T22:49:45;20.65;;;10.05;;
22754;SDS011;11544;42.020;23.094;2022-12-17T22:52:12;25.98;;;14.85;;
22754;SDS011;11544;42.020;23.094;2022-12-17T22:54:41;24.63;;;13.63;;
22754;SDS011;11544;42.020;23.094;2022-12-17T22:57:09;31.90;;;17.83;;
22754;SDS011;11544;42.020;23.094;2022-12-17T22:59:56;35.30;;;17.40;;
22754;SDS011;11544;42.020;23.094;2022-12-17T23:02:22;35.15;;;18.55;;
22754;SDS011;11544;42.020;23.094;2022-12-17T23:04:52;29.45;;;17.13;;
22754;SDS011;11544;42.020;23.094;2022-12-17T23:07:19;27.60;;;14.35;;
22754;SDS011;11544;42.020;23.094;2022-12-17T23:09:52;20.13;;;11.95;;
22754;SDS011;11544;42.020;23.094;2022-12-17T23:12:22;23.05;;;13.27;;
22754;SDS011;11544;42.020;23.094;2022-12-17T23:15:09;22.52;;;12.00;;
22754;SDS011;11544;42.020;23.094;2022-12-17T23:17:36;22.48;;;10.82;;
22754;SDS011;11544;42.020;23.094;2022-12-17T23:20:05;18.23;;;11.23;;
22754;SDS011;11544;42.020;23.094;2022-12-17T23:22:35;23.45;;;12.02;;
22754;SDS011;11544;42.020;23.094;2022-12-17T23:25:05;20.40;;;10.75;;
22754;SDS011;11544;42.020;23.094;2022-12-17T23:27:33;19.15;;;10.65;;
22754;SDS011;11544;42.020;23.094;2022-12-17T23:30:00;20.80;;;11.00;;
22754;SDS011;11544;42.020;23.094;2022-12-17T23:32:27;19.50;;;10.88;;
22754;SDS011;11544;42.020;23.094;2022-12-17T23:34:54;22.52;;;12.05;;
22754;SDS011;11544;42.020;23.094;2022-12-17T23:37:21;26.85;;;11.50;;
22754;SDS011;11544;42.020;23.094;2022-12-17T23:39:49;24.48;;;12.52;;
22754;SDS011;11544;42.020;23.094;2022-12-17T23:42:16;26.30;;;12.32;;
22754;SDS011;11544;42.020;23.094;2022-12-17T23:44:42;36.78;;;14.60;;
22754;SDS011;11544;42.020;23.094;2022-12-17T23:47:10;27.83;;;12.88;;
22754;SDS011;11544;42.020;23.094;2022-12-17T23:49:36;36.45;;;14.93;;
22754;SDS011;11544;42.020;23.094;2022-12-17T23:52:03;37.38;;;15.63;;
22754;SDS011;11544;42.020;23.094;2022-12-17T23:54:34;33.03;;;14.60;;
22754;SDS011;11544;42.020;23.094;2022-12-17T23:57:01;29.23;;;13.30;;
22754;SDS011;11544;42.020;23.094;2022-12-17T23:59:30;32.15;;;13.60;;
